Time;durP1;ratioP1;P1;durP2;ratioP2;P2;SDS_P1;SDS_P2;PMS_P1;PMS_P2;Temp;Humidity;BMP_temperature;BMP_pressure;BME280_temperature;BME280_humidity;BME280_pressure;Samples;Min_cycle;Max_cycle;Signal;HPM_P1;HPM_P2
2022/06/16 00:01:30;;;;;;;6.25;2.17;;;;;;;15.27;58.37;101193.69;4971840;28;20797;-84
2022/06/16 00:04:00;;;;;;;3.97;2.17;;;;;;;15.24;58.42;101179.69;4976499;28;20485;-84
2022/06/16 00:06:27;;;;;;;2.33;2.13;;;;;;;15.18;58.42;101188.59;4989175;28;20386;-84
2022/06/16 00:08:54;;;;;;;2.95;1.80;;;;;;;15.09;58.92;101184.38;4988526;28;20403;-85
2022/06/16 00:11:20;;;;;;;3.67;1.90;;;;;;;15.01;59.21;101178.38;4986350;28;20497;-84
2022/06/16 00:13:54;;;;;;;1.70;1.60;;;;;;;14.93;59.46;101173.25;4987474;28;20161;-86
2022/06/16 00:16:23;;;;;;;3.58;2.58;;;;;;;14.87;59.52;101174.25;4987504;28;20046;-84
2022/06/16 00:18:53;;;;;;;2.75;1.83;;;;;;;14.83;59.82;101175.19;4979926;28;20047;-84
2022/06/16 00:21:19;;;;;;;3.00;2.05;;;;;;;14.78;59.95;101177.03;4982665;28;20488;-86
2022/06/16 00:23:46;;;;;;;3.92;2.53;;;;;;;14.76;59.94;101163.03;4986265;28;20137;-85
2022/06/16 00:26:20;;;;;;;6.18;1.77;;;;;;;14.74;60.10;101179.75;4972595;28;20073;-85
2022/06/16 00:28:48;;;;;;;1.92;1.73;;;;;;;14.68;60.32;101178.13;4981303;28;20069;-84
2022/06/16 00:31:17;;;;;;;4.53;2.70;;;;;;;14.60;60.54;101167.69;4986503;28;20088;-85
2022/06/16 00:33:45;;;;;;;2.08;1.83;;;;;;;14.53;60.77;101142.31;4986421;28;20113;-85
2022/06/16 00:36:12;;;;;;;1.88;1.77;;;;;;;14.49;61.06;101143.28;4987105;28;20035;-83
2022/06/16 00:38:39;;;;;;;4.60;2.13;;;;;;;14.44;61.22;101140.72;4986949;28;20626;-83
2022/06/16 00:41:07;;;;;;;5.20;2.85;;;;;;;14.42;61.03;101141.63;4985684;28;20568;-84
2022/06/16 00:43:34;;;;;;;3.92;1.55;;;;;;;14.37;61.49;101147.00;4971604;28;20176;-82
2022/06/16 00:46:10;;;;;;;4.03;1.80;;;;;;;14.33;61.68;101140.91;4970090;28;20043;-84
2022/06/16 00:48:55;;;;;;;4.68;2.13;;;;;;;14.32;61.85;101149.69;4984659;28;20051;-84
2022/06/16 00:51:36;;;;;;;3.63;2.38;;;;;;;14.29;62.15;101152.38;4965985;28;20046;-86
2022/06/16 00:54:21;;;;;;;3.15;2.03;;;;;;;14.31;62.26;101157.63;4980007;28;20042;-84
2022/06/16 00:56:52;;;;;;;3.05;1.90;;;;;;;14.33;61.81;101154.06;4985280;28;20050;-83
2022/06/16 00:59:21;;;;;;;9.00;1.98;;;;;;;14.37;61.83;101149.63;4968911;28;20397;-83
2022/06/16 01:01:48;;;;;;;2.50;1.95;;;;;;;14.37;61.50;101142.59;4969896;28;20544;-85
2022/06/16 01:07:07;;;;;;;2.00;1.80;;;;;;;14.39;62.26;101166.25;4980660;28;20424;-86
2022/06/16 01:09:35;;;;;;;3.05;1.95;;;;;;;14.40;62.21;101168.00;4986925;28;20467;-84
2022/06/16 01:16:33;;;;;;;2.47;2.30;;;;;;;14.36;62.64;101196.16;4976800;28;20069;-86
2022/06/16 01:19:39;;;;;;;3.20;1.83;;;;;;;14.29;62.56;101201.53;4986397;28;20081;-84
2022/06/16 01:22:16;;;;;;;3.08;1.92;;;;;;;14.23;62.75;101174.41;4980475;28;20049;-82
2022/06/16 01:25:00;;;;;;;4.20;2.08;;;;;;;14.23;62.68;101160.38;4966454;28;20220;-83
2022/06/16 01:27:50;;;;;;;2.28;2.08;;;;;;;14.23;62.65;101152.47;4982679;28;20065;-83
2022/06/16 01:30:46;;;;;;;2.15;1.60;;;;;;;14.22;62.72;101153.34;4961112;28;20385;-84
2022/06/16 01:33:25;;;;;;;3.45;2.45;;;;;;;14.19;62.74;101141.13;4976476;28;20224;-85
2022/06/16 01:36:12;;;;;;;3.10;2.28;;;;;;;14.18;62.89;101127.97;4984715;28;20069;-85
2022/06/16 01:39:04;;;;;;;3.17;1.98;;;;;;;14.15;63.32;101128.91;4982764;28;20497;-84
2022/06/16 01:41:51;;;;;;;2.42;1.80;;;;;;;14.13;63.42;101137.72;4980509;28;20684;-85
2022/06/16 01:44:33;;;;;;;2.70;1.60;;;;;;;14.09;63.68;101150.06;4984026;28;20133;-84
2022/06/16 01:47:09;;;;;;;3.60;1.92;;;;;;;14.04;63.73;101147.50;4968243;28;20483;-86
2022/06/16 01:49:45;;;;;;;4.03;2.33;;;;;;;14.02;63.89;101133.47;4975699;28;20054;-84
2022/06/16 01:52:24;;;;;;;4.18;2.30;;;;;;;13.98;64.20;101123.91;4980973;28;20046;-84
2022/06/16 01:54:59;;;;;;;2.85;2.17;;;;;;;13.92;64.75;101108.19;4982227;28;20053;-85
2022/06/16 01:57:36;;;;;;;3.85;2.10;;;;;;;13.87;64.47;101102.13;4967200;28;20045;-83
2022/06/16 02:00:22;;;;;;;2.38;2.17;;;;;;;13.81;65.07;101126.78;4982272;28;20470;-83
2022/06/16 02:03:34;;;;;;;3.63;2.20;;;;;;;13.77;65.74;101150.56;4965742;28;20460;-85
2022/06/16 02:06:24;;;;;;;6.05;1.70;;;;;;;13.71;65.79;101169.91;4954059;28;20045;-84
2022/06/16 02:09:08;;;;;;;4.18;3.00;;;;;;;13.71;66.34;101183.06;4978585;28;20050;-84
2022/06/16 02:11:36;;;;;;;2.97;2.38;;;;;;;13.72;66.04;101184.81;4966834;28;20569;-83
2022/06/16 02:14:30;;;;;;;2.25;2.15;;;;;;;13.76;66.15;101167.22;4981247;28;20461;-84
2022/06/16 02:16:57;;;;;;;;;;;;;;;13.73;66.41;101173.41;4968063;28;20183;-85
2022/06/16 02:19:28;;;;;;;3.80;1.98;;;;;;;13.70;66.33;101176.06;4981240;28;19957;-86
2022/06/16 02:21:56;;;;;;;2.25;2.05;;;;;;;13.70;66.14;101174.31;4964571;28;20042;-84
2022/06/16 02:24:28;;;;;;;2.80;1.80;;;;;;;13.68;66.39;101178.72;4979834;28;20056;-84
2022/06/16 02:26:58;;;;;;;1.65;1.55;;;;;;;13.64;66.84;101176.16;4980926;28;20314;-85
2022/06/16 02:29:40;;;;;;;3.10;1.58;;;;;;;13.57;67.86;101188.50;4964735;28;20445;-85
2022/06/16 02:32:55;;;;;;;3.03;2.00;;;;;;;13.53;67.84;101194.69;4981802;28;20401;-84
2022/06/16 02:35:36;;;;;;;2.00;1.75;;;;;;;13.48;67.59;101173.72;4976449;28;20422;-85
2022/06/16 02:38:34;;;;;;;3.60;1.83;;;;;;;13.49;67.92;101164.06;4966256;28;20057;-83
2022/06/16 02:41:38;;;;;;;2.67;1.92;;;;;;;13.49;67.83;101162.31;4982978;28;20092;-84
2022/06/16 02:44:48;;;;;;;3.20;2.33;;;;;;;13.49;68.01;101164.97;4975927;28;20057;-84
2022/06/16 02:47:47;;;;;;;3.40;2.42;;;;;;;13.52;68.35;101174.56;4997795;28;20118;-83
2022/06/16 02:50:59;;;;;;;1.95;1.77;;;;;;;13.55;68.58;101177.16;4981472;28;20543;-83
2022/06/16 02:53:39;;;;;;;3.70;2.75;;;;;;;13.57;67.86;101172.72;4976039;28;20046;-84
2022/06/16 02:56:20;;;;;;;2.75;2.35;;;;;;;13.59;68.23;101167.47;4981580;28;20039;-84
2022/06/16 02:58:53;;;;;;;2.00;1.90;;;;;;;13.58;68.08;101169.19;4983931;28;20133;-84
2022/06/16 03:01:21;;;;;;;1.45;1.45;;;;;;;13.58;67.97;101163.94;4965986;28;20157;-83
2022/06/16 03:04:13;;;;;;;2.15;1.85;;;;;;;13.59;68.97;101164.84;4984824;28;20046;-84
2022/06/16 03:06:40;;;;;;;4.35;2.33;;;;;;;13.56;68.49;101157.84;4969909;28;20046;-85
2022/06/16 03:09:07;;;;;;;4.75;2.72;;;;;;;13.53;68.44;101158.75;4968074;28;20576;-85
2022/06/16 03:11:36;;;;;;;3.95;2.45;;;;;;;13.51;68.88;101159.66;4985732;28;20118;-84
2022/06/16 03:14:04;;;;;;;3.10;2.80;;;;;;;13.48;69.04;101154.44;4969478;28;20138;-84
2022/06/16 03:16:33;;;;;;;8.05;2.38;;;;;;;13.45;69.14;101163.22;4979783;28;20043;-85
2022/06/16 03:19:00;;;;;;;2.95;2.20;;;;;;;13.42;69.30;101134.34;4985908;28;20046;-85
2022/06/16 03:21:27;;;;;;;4.20;2.20;;;;;;;13.39;69.77;101135.25;4985292;28;20034;-84
2022/06/16 03:23:54;;;;;;;5.97;2.63;;;;;;;13.34;70.13;101134.41;4969737;28;20050;-84
2022/06/16 03:26:21;;;;;;;3.13;2.13;;;;;;;13.32;70.08;101149.31;4984395;28;20414;-84
2022/06/16 03:28:49;;;;;;;3.25;1.95;;;;;;;13.33;70.40;101150.22;4972665;28;20050;-85
2022/06/16 03:31:16;;;;;;;3.50;2.15;;;;;;;13.32;70.77;101154.59;4985504;28;20042;-84
2022/06/16 03:33:44;;;;;;;7.72;3.00;;;;;;;13.32;70.77;101173.00;4986946;28;20129;-83
2022/06/16 03:36:13;;;;;;;2.83;2.05;;;;;;;13.33;71.16;101192.28;4972193;28;20057;-84
2022/06/16 03:38:42;;;;;;;3.92;2.35;;;;;;;13.35;71.13;101201.91;4988175;28;20046;-85
2022/06/16 03:41:11;;;;;;;3.00;2.17;;;;;;;13.37;71.08;101205.41;4984406;28;20123;-85
2022/06/16 03:43:38;;;;;;;4.18;2.70;;;;;;;13.38;71.45;101206.28;4986302;28;20061;-87
2022/06/16 03:46:06;;;;;;;6.30;2.40;;;;;;;13.40;70.93;101205.38;4966910;28;20132;-85
2022/06/16 03:48:35;;;;;;;3.08;2.25;;;;;;;13.40;71.28;101205.38;4972169;28;20125;-86
2022/06/16 03:51:04;;;;;;;4.55;1.98;;;;;;;13.42;71.41;101194.84;4970422;28;20125;-85
2022/06/16 03:53:41;;;;;;;4.45;2.17;;;;;;;13.45;71.58;101186.03;4984269;28;20050;-86
2022/06/16 03:56:09;;;;;;;8.20;2.70;;;;;;;13.48;71.28;101181.63;4986905;28;20074;-85
2022/06/16 03:58:37;;;;;;;2.70;2.50;;;;;;;13.50;70.83;101177.19;4969276;28;20054;-86
2022/06/16 04:01:05;;;;;;;3.47;3.00;;;;;;;13.54;71.09;101175.41;4986484;28;20125;-86
2022/06/16 04:06:22;;;;;;;4.05;2.38;;;;;;;13.54;71.16;101165.75;4979698;28;20044;-86
2022/06/16 04:08:52;;;;;;;3.75;2.70;;;;;;;13.54;71.15;101173.63;4973558;28;20058;-84
2022/06/16 04:11:29;;;;;;;2.92;2.47;;;;;;;13.53;71.42;101177.19;4991087;28;20173;-84
2022/06/16 04:14:00;;;;;;;3.20;2.20;;;;;;;13.55;71.59;101180.63;4986743;28;20038;-84
2022/06/16 04:16:34;;;;;;;3.40;2.20;;;;;;;13.53;71.43;101185.06;4975504;28;20046;-85
2022/06/16 04:19:01;;;;;;;3.97;2.03;;;;;;;13.51;71.49;101184.19;4973416;28;20039;-85
2022/06/16 04:21:32;;;;;;;3.80;2.58;;;;;;;13.52;71.64;101191.22;4981539;28;20101;-84
2022/06/16 04:23:59;;;;;;;4.35;2.17;;;;;;;13.57;71.39;101194.66;4970232;28;20046;-84
2022/06/16 04:26:26;;;;;;;4.55;2.70;;;;;;;13.61;71.30;101191.97;4986868;28;20041;-83
2022/06/16 04:29:00;;;;;;;6.35;2.53;;;;;;;13.63;71.35;101201.59;4989341;28;20054;-83
2022/06/16 04:31:34;;;;;;;4.97;2.58;;;;;;;13.68;71.30;101202.41;4972706;28;20070;-83
2022/06/16 04:34:04;;;;;;;3.50;2.10;;;;;;;13.73;71.37;101202.34;4986225;28;20043;-84
2022/06/16 04:36:35;;;;;;;4.05;2.33;;;;;;;13.76;71.08;101196.19;4972429;28;20054;-84
2022/06/16 04:39:14;;;;;;;3.58;2.30;;;;;;;13.80;71.08;101197.88;4984802;28;20057;-87
2022/06/16 04:41:46;;;;;;;5.03;2.80;;;;;;;13.87;71.13;101207.41;4987031;28;20807;-83
2022/06/16 04:44:20;;;;;;;4.45;3.20;;;;;;;13.97;70.82;101214.28;4971000;28;20050;-85
2022/06/16 04:46:56;;;;;;;6.28;3.35;;;;;;;14.09;70.48;101209.75;4991181;28;20046;-84
2022/06/16 04:49:22;;;;;;;5.47;3.00;;;;;;;14.22;69.96;101219.19;4991473;28;20076;-84
2022/06/16 04:51:55;;;;;;;4.80;3.08;;;;;;;14.32;69.54;101231.34;4990186;28;20054;-85
2022/06/16 04:54:21;;;;;;;3.63;3.03;;;;;;;14.41;69.40;101226.84;4992035;28;20048;-84
2022/06/16 04:56:51;;;;;;;6.07;2.72;;;;;;;14.47;69.03;101238.13;4975629;28;20057;-84
2022/06/16 04:59:25;;;;;;;4.65;3.40;;;;;;;14.52;68.97;101238.03;4992084;28;20039;-84
2022/06/16 05:02:01;;;;;;;4.18;3.10;;;;;;;14.53;68.92;101243.28;4991954;28;20429;-86
2022/06/16 05:04:27;;;;;;;2.38;2.25;;;;;;;14.52;69.16;101251.22;4973310;28;20101;-86
2022/06/16 05:06:55;;;;;;;6.18;2.85;;;;;;;14.52;69.03;101243.31;4988719;28;20050;-84
2022/06/16 05:09:24;;;;;;;3.28;2.47;;;;;;;14.57;69.15;101238.84;4987896;28;20077;-86
2022/06/16 05:11:56;;;;;;;3.45;1.98;;;;;;;14.66;68.78;101238.72;4985909;28;20572;-85
2022/06/16 05:14:24;;;;;;;2.60;2.28;;;;;;;14.77;68.38;101248.22;4986150;28;20152;-85
2022/06/16 05:16:51;;;;;;;3.15;2.75;;;;;;;14.84;68.21;101248.09;4971827;28;20053;-85
2022/06/16 05:19:30;;;;;;;4.55;3.55;;;;;;;14.86;68.09;101248.94;4987514;28;20049;-85
2022/06/16 05:21:57;;;;;;;4.70;3.05;;;;;;;14.83;68.60;101245.50;4988615;28;20132;-84
2022/06/16 05:24:24;;;;;;;5.78;3.05;;;;;;;14.81;68.47;101260.44;4979802;28;20050;-85
2022/06/16 05:26:55;;;;;;;4.10;2.78;;;;;;;14.79;68.69;101257.84;4985345;28;21058;-85
2022/06/16 05:29:22;;;;;;;6.10;3.28;;;;;;;14.79;68.61;101272.78;4970049;28;20652;-86
2022/06/16 05:31:55;;;;;;;3.30;2.83;;;;;;;14.76;68.95;101272.81;4985626;28;20529;-84
2022/06/16 05:34:23;;;;;;;6.82;3.08;;;;;;;14.75;69.25;101277.25;4986280;28;20046;-83
2022/06/16 05:36:56;;;;;;;6.50;2.95;;;;;;;14.74;69.36;101285.19;4983058;28;20061;-84
2022/06/16 05:39:30;;;;;;;5.85;2.83;;;;;;;14.75;69.17;101279.88;4971580;28;20093;-84
2022/06/16 05:42:03;;;;;;;5.82;2.88;;;;;;;14.76;69.45;101289.53;4985935;28;20050;-85
2022/06/16 05:44:31;;;;;;;6.18;2.97;;;;;;;14.79;69.64;101293.88;4968772;28;20078;-85
2022/06/16 05:46:58;;;;;;;3.90;3.10;;;;;;;14.81;69.70;101286.81;4986139;28;20046;-86
2022/06/16 05:49:25;;;;;;;7.45;4.25;;;;;;;14.81;69.73;101292.97;4984062;28;20072;-85
2022/06/16 05:51:52;;;;;;;6.53;3.83;;;;;;;14.85;69.59;101297.28;4972151;28;20392;-84
2022/06/16 05:54:22;;;;;;;5.53;3.72;;;;;;;14.84;70.05;101298.16;4987145;28;20042;-86
2022/06/16 05:56:54;;;;;;;4.55;2.55;;;;;;;14.83;69.80;101309.59;4969934;28;20208;-85
2022/06/16 05:59:24;;;;;;;2.67;2.30;;;;;;;14.79;70.23;101297.38;4950781;28;20065;-85
2022/06/16 06:01:55;;;;;;;4.65;3.53;;;;;;;14.83;70.15;101306.09;4983032;28;20136;-86
2022/06/16 06:04:26;;;;;;;4.80;3.03;;;;;;;14.90;69.82;101305.13;4980706;28;20049;-86
2022/06/16 06:06:58;;;;;;;9.52;3.70;;;;;;;15.04;69.80;101312.78;4982461;28;20046;-85
2022/06/16 06:18:19;;;;;;;4.20;3.03;;;;;;;15.41;68.58;101308.63;4985169;28;20691;-85
2022/06/16 06:20:49;;;;;;;4.88;2.67;;;;;;;15.45;68.40;101305.03;4984931;28;20062;-85
2022/06/16 06:23:17;;;;;;;3.15;2.58;;;;;;;15.50;68.03;101311.97;4985568;28;20050;-86
2022/06/16 06:25:43;;;;;;;7.78;2.83;;;;;;;15.57;68.00;101296.03;4970490;28;20073;-88
2022/06/16 06:28:19;;;;;;;4.78;3.35;;;;;;;15.68;67.78;101302.84;4987677;28;20392;-87
2022/06/16 06:30:51;;;;;;;3.78;2.35;;;;;;;15.86;67.23;101320.09;4982509;28;20274;-87
2022/06/16 06:33:18;;;;;;;4.10;2.42;;;;;;;16.09;66.33;101316.09;4982425;28;20432;-87
2022/06/16 06:35:46;;;;;;;3.83;2.92;;;;;;;16.34;65.86;101321.72;4962503;28;20042;-84
2022/06/16 06:38:17;;;;;;;8.63;2.22;;;;;;;16.55;64.54;101311.56;4968457;28;20046;-85
2022/06/16 06:40:44;;;;;;;5.78;4.78;;;;;;;16.64;64.28;101314.00;4985410;28;20125;-87
2022/06/16 06:43:11;;;;;;;4.50;2.97;;;;;;;16.72;63.57;101311.16;4970812;28;20129;-86
2022/06/16 06:45:40;;;;;;;4.68;2.75;;;;;;;16.77;63.85;101311.91;4974438;28;20074;-86
2022/06/16 06:48:09;;;;;;;4.57;2.53;;;;;;;16.86;63.15;101310.84;4987558;28;20076;-85
2022/06/16 06:50:40;;;;;;;4.75;2.25;;;;;;;16.90;62.81;101309.88;4963995;28;20058;-87
2022/06/16 06:53:08;;;;;;;5.63;2.35;;;;;;;16.98;62.85;101318.47;4972917;28;20272;-89
2022/06/16 06:55:39;;;;;;;6.57;2.72;;;;;;;17.05;62.82;101316.53;4998669;28;20050;-85
2022/06/16 06:58:09;;;;;;;5.32;2.38;;;;;;;17.13;62.33;101319.00;4999233;28;20068;-86
2022/06/16 07:00:36;;;;;;;5.85;2.63;;;;;;;17.13;62.39;101327.81;5003671;28;20038;-84
2022/06/16 07:03:03;;;;;;;3.42;1.77;;;;;;;17.16;62.00;101319.78;5002371;28;20030;-86
2022/06/16 07:05:31;;;;;;;3.58;2.05;;;;;;;17.17;61.46;101321.53;4993290;28;20080;-85
2022/06/16 07:07:58;;;;;;;4.13;2.25;;;;;;;17.34;61.40;101333.47;4990597;28;20436;-86
2022/06/16 07:10:26;;;;;;;12.57;6.22;;;;;;;17.56;60.63;101333.75;4974121;28;20062;-84
2022/06/16 07:12:52;;;;;;;4.82;2.80;;;;;;;17.78;59.75;101330.50;4986590;28;20129;-86
2022/06/16 07:15:20;;;;;;;4.55;2.40;;;;;;;17.89;58.78;101333.72;4974903;28;21032;-85
2022/06/16 07:17:50;;;;;;;3.53;2.05;;;;;;;17.99;58.31;101339.63;4970326;28;20121;-85
2022/06/16 07:20:18;;;;;;;4.85;1.92;;;;;;;18.17;57.91;101339.13;4983385;28;20043;-88
2022/06/16 07:22:46;;;;;;;2.63;1.80;;;;;;;18.36;56.95;101335.91;4982771;28;20066;-85
2022/06/16 07:25:15;;;;;;;4.85;1.55;;;;;;;18.54;56.44;101349.50;4967457;28;20415;-86
2022/06/16 07:27:47;;;;;;;5.95;1.65;;;;;;;18.80;55.71;101338.94;4968300;28;20058;-85
2022/06/16 07:30:19;;;;;;;8.93;2.05;;;;;;;19.15;54.69;101338.72;4971619;28;20504;-85
2022/06/16 07:35:29;;;;;;;5.03;2.08;;;;;;;20.19;51.25;101330.56;4982188;28;20054;-85
2022/06/16 07:37:56;;;;;;;3.70;1.98;;;;;;;20.76;50.47;101331.03;4986640;28;20145;-88
2022/06/16 07:40:24;;;;;;;5.55;1.55;;;;;;;21.32;48.74;101334.88;4993656;28;20134;-86
2022/06/16 07:42:56;;;;;;;2.55;1.67;;;;;;;21.85;46.47;101331.75;4987706;28;20530;-85
2022/06/16 07:45:33;;;;;;;3.22;1.77;;;;;;;22.17;45.57;101332.91;4969977;28;20122;-85
2022/06/16 07:50:41;;;;;;;1.80;1.65;;;;;;;23.25;43.23;101349.06;4983469;28;20082;-86
2022/06/16 07:53:11;;;;;;;2.60;1.50;;;;;;;23.56;41.58;101349.28;4966618;28;20034;-85
2022/06/16 07:55:38;;;;;;;3.72;2.03;;;;;;;23.83;42.05;101352.31;4966847;28;21149;-87
2022/06/16 07:58:08;;;;;;;2.08;1.63;;;;;;;24.13;40.45;101356.09;4965363;28;20046;-86
2022/06/16 08:00:45;;;;;;;4.93;1.60;;;;;;;24.08;40.04;101359.88;4958936;28;20519;-85
2022/06/16 08:03:11;;;;;;;3.45;1.83;;;;;;;23.99;39.83;101364.84;4968356;28;20781;-87
2022/06/16 08:05:38;;;;;;;1.30;1.13;;;;;;;23.99;40.48;101362.19;4983586;28;20062;-84
2022/06/16 08:08:06;;;;;;;6.90;3.72;;;;;;;23.94;40.38;101365.13;4982047;28;20128;-87
2022/06/16 08:10:35;;;;;;;3.03;2.22;;;;;;;23.68;40.88;101367.34;4983516;28;20046;-87
2022/06/16 08:13:04;;;;;;;4.65;2.10;;;;;;;23.49;40.77;101372.78;4972046;28;20472;-87
2022/06/16 08:15:31;;;;;;;5.00;1.60;;;;;;;23.38;41.14;101365.31;4969101;28;20092;-86
2022/06/16 08:17:58;;;;;;;5.72;1.13;;;;;;;23.84;40.43;101358.50;4968220;28;20049;-85
2022/06/16 08:20:28;;;;;;;4.22;1.67;;;;;;;24.56;38.95;101362.59;4998248;28;20815;-85
2022/06/16 08:22:58;;;;;;;1.98;1.60;;;;;;;25.05;38.60;101366.94;4967750;28;20085;-85
2022/06/16 08:25:25;;;;;;;3.58;1.90;;;;;;;25.35;36.65;101371.47;4984609;28;20060;-86
2022/06/16 08:27:52;;;;;;;3.47;1.42;;;;;;;25.54;36.23;101360.50;4968516;28;20054;-86
2022/06/16 08:30:23;;;;;;;2.15;1.33;;;;;;;26.04;36.09;101369.06;4968041;28;20050;-85
2022/06/16 08:32:55;;;;;;;2.05;1.40;;;;;;;26.56;35.22;101361.31;4953282;28;20046;-86
2022/06/16 08:35:24;;;;;;;3.08;2.05;;;;;;;27.21;34.38;101351.69;4969470;28;20056;-88
2022/06/16 08:37:52;;;;;;;2.00;1.55;;;;;;;27.46;33.11;101350.03;4983446;28;20054;-89
2022/06/16 08:40:22;;;;;;;1.33;1.25;;;;;;;27.78;32.67;101349.56;4981106;28;20046;-87
2022/06/16 08:43:15;;;;;;;3.85;1.73;;;;;;;28.59;30.52;101359.00;4979689;28;20047;-86
2022/06/16 08:45:50;;;;;;;;;;;;;;;29.21;29.81;101355.22;4981455;28;20096;-85
2022/06/16 08:48:45;;;;;;;1.63;1.45;;;;;;;29.29;29.44;101365.44;4976872;28;19969;-89
2022/06/16 08:51:46;;;;;;;10.02;1.80;;;;;;;29.49;29.10;101366.63;4994060;28;20050;-87
2022/06/16 08:54:44;;;;;;;3.67;1.48;;;;;;;29.08;29.71;101376.03;4961363;28;20394;-89
2022/06/16 08:57:32;;;;;;;2.60;1.70;;;;;;;29.60;29.20;101375.72;4948538;28;20046;-87
2022/06/16 09:00:15;;;;;;;3.45;1.58;;;;;;;29.85;28.47;101375.47;4980871;28;20053;-89
2022/06/16 09:03:23;;;;;;;2.00;1.83;;;;;;;29.56;28.54;101371.53;4971127;28;20751;-89
2022/06/16 09:06:06;;;;;;;2.10;1.00;;;;;;;29.88;28.94;101373.53;4979866;28;20104;-85
2022/06/16 09:12:42;;;;;;;3.60;1.90;;;;;;;30.20;28.08;101369.09;4961358;28;20049;-85
2022/06/16 09:15:46;;;;;;;2.47;1.60;;;;;;;29.82;28.07;101372.16;4966073;28;20501;-86
2022/06/16 09:18:55;;;;;;;2.42;1.40;;;;;;;29.28;28.70;101368.28;4947887;28;20585;-86
2022/06/16 09:21:38;;;;;;;1.40;1.27;;;;;;;29.47;28.82;101367.72;4980620;28;20517;-90
2022/06/16 09:25:13;;;;;;;1.65;1.55;;;;;;;29.20;28.87;101368.81;4978355;28;20148;-86
2022/06/16 09:28:05;;;;;;;3.20;2.40;;;;;;;27.72;30.82;101380.47;4923036;29;20566;-86
2022/06/16 09:30:39;;;;;;;3.10;1.48;;;;;;;27.37;31.94;101386.44;4968303;28;20049;-85
2022/06/16 09:33:14;;;;;;;5.75;2.30;;;;;;;26.99;32.64;101396.13;4963572;28;20050;-87
2022/06/16 09:36:02;;;;;;;2.13;1.63;;;;;;;28.44;30.91;101384.38;4986088;28;20050;-85
2022/06/16 09:38:40;;;;;;;2.47;1.90;;;;;;;28.66;30.11;101379.13;4967746;28;20054;-85
2022/06/16 09:44:07;;;;;;;9.38;2.50;;;;;;;30.20;28.31;101376.34;4979943;28;20663;-87
2022/06/16 09:46:43;;;;;;;10.15;1.92;;;;;;;31.17;27.04;101372.91;4953553;28;20400;-84
2022/06/16 09:49:17;;;;;;;4.10;1.73;;;;;;;32.61;25.39;101377.44;4980324;28;20038;-86
2022/06/16 09:52:06;;;;;;;2.83;1.60;;;;;;;32.15;25.48;101370.72;4996258;28;20089;-87
2022/06/16 09:54:55;;;;;;;2.03;1.30;;;;;;;30.21;27.43;101378.09;4963638;28;20552;-86
2022/06/16 09:57:45;;;;;;;5.10;1.20;;;;;;;28.59;29.16;101377.84;4965339;28;20088;-85
2022/06/16 10:00:22;;;;;;;3.65;1.15;;;;;;;27.99;29.92;101383.03;4981629;28;20081;-85
2022/06/16 10:03:10;;;;;;;4.10;1.48;;;;;;;28.60;29.71;101384.09;4966829;28;20153;-86
2022/06/16 10:05:43;;;;;;;4.47;1.17;;;;;;;30.49;26.88;101382.13;4994315;28;20050;-85
2022/06/16 10:08:28;;;;;;;1.25;0.98;;;;;;;32.24;24.61;101383.50;4966186;28;20069;-90
2022/06/16 10:11:08;;;;;;;1.50;1.25;;;;;;;32.77;23.68;101387.75;4980513;28;20404;-86
2022/06/16 10:13:52;;;;;;;2.17;1.98;;;;;;;31.39;25.12;101381.91;4982539;28;20065;-86
2022/06/16 10:16:26;;;;;;;4.65;1.58;;;;;;;30.89;26.11;101386.03;4987331;28;20054;-85
2022/06/16 10:18:55;;;;;;;1.17;1.00;;;;;;;30.70;26.62;101394.81;4986890;28;20046;-87
2022/06/16 10:21:32;;;;;;;3.03;1.70;;;;;;;30.94;26.41;101396.47;4971518;28;20050;-88
2022/06/16 10:24:03;;;;;;;3.55;1.20;;;;;;;31.99;25.40;101393.81;4980861;28;20153;-87
2022/06/16 10:26:30;;;;;;;1.10;1.10;;;;;;;32.76;24.19;101394.19;4999679;28;20350;-87
2022/06/16 10:29:22;;;;;;;0.90;0.90;;;;;;;33.48;22.96;101394.75;4976168;28;20050;-89
2022/06/16 10:31:54;;;;;;;2.35;1.23;;;;;;;34.37;22.41;101389.03;4975586;28;20059;-85
2022/06/16 10:34:29;;;;;;;;;;;;;;;35.10;20.88;101391.63;5001565;28;20046;-88
2022/06/16 10:37:16;;;;;;;1.88;0.80;;;;;;;36.00;20.95;101398.72;4997680;28;19933;-86
2022/06/16 10:39:44;;;;;;;3.20;1.45;;;;;;;36.46;20.18;101395.69;5003407;28;20125;-90
2022/06/16 10:42:24;;;;;;;2.15;1.10;;;;;;;35.48;20.16;101396.88;4996716;28;20046;-88
2022/06/16 10:45:22;;;;;;;1.55;0.80;;;;;;;35.06;21.17;101403.00;4973002;28;20058;-87
2022/06/16 10:48:47;;;;;;;1.88;0.85;;;;;;;36.23;18.93;101399.00;4988830;28;20038;-86
2022/06/16 10:51:19;;;;;;;1.15;0.65;;;;;;;36.39;19.54;101398.22;4980073;28;20497;-87
2022/06/16 10:54:21;;;;;;;2.00;0.70;;;;;;;36.73;19.20;101400.00;4981129;28;20054;-85
2022/06/16 10:56:50;;;;;;;0.63;0.60;;;;;;;37.49;17.48;101390.81;4953563;28;20062;-84
2022/06/16 10:59:28;;;;;;;1.50;0.90;;;;;;;37.20;18.06;101403.97;4970792;28;20791;-87
2022/06/16 11:02:04;;;;;;;4.05;0.68;;;;;;;37.24;18.55;101401.75;4985079;28;20165;-86
2022/06/16 11:04:43;;;;;;;2.28;0.80;;;;;;;37.53;16.82;101409.41;4985390;28;20038;-86
2022/06/16 11:07:19;;;;;;;3.15;0.70;;;;;;;38.10;17.08;101421.22;4985371;28;20147;-85
2022/06/16 11:09:49;;;;;;;1.08;0.80;;;;;;;38.77;16.62;101417.16;4977564;28;20077;-87
2022/06/16 11:12:21;;;;;;;0.80;0.50;;;;;;;38.79;16.69;101415.09;4970592;28;20042;-87
2022/06/16 11:15:05;;;;;;;1.02;0.50;;;;;;;38.54;16.35;101412.50;4968747;28;20061;-86
2022/06/16 11:17:50;;;;;;;1.45;0.63;;;;;;;38.15;16.56;101412.47;4984820;28;20050;-87
2022/06/16 11:20:40;;;;;;;0.82;0.50;;;;;;;38.36;15.66;101410.03;4968845;28;20180;-86
2022/06/16 11:23:24;;;;;;;1.70;0.90;;;;;;;38.66;15.65;101421.13;4967284;28;20061;-86
2022/06/16 11:26:18;;;;;;;1.83;0.80;;;;;;;38.99;15.83;101431.84;4989765;28;20042;-86
2022/06/16 11:28:55;;;;;;;0.90;0.30;;;;;;;38.97;15.87;101428.47;4984133;28;20058;-86
2022/06/16 11:31:37;;;;;;;1.25;1.08;;;;;;;39.26;16.00;101428.78;4984398;28;20042;-88
2022/06/16 11:34:20;;;;;;;1.15;0.60;;;;;;;39.63;15.18;101419.69;4983117;28;20071;-86
2022/06/16 11:37:18;;;;;;;0.98;0.50;;;;;;;39.95;15.48;101424.97;4986234;28;20049;-88
2022/06/16 11:40:23;;;;;;;2.38;0.70;;;;;;;39.64;14.18;101429.63;4985265;28;20049;-87
2022/06/16 11:43:11;;;;;;;2.30;0.45;;;;;;;39.06;15.70;101437.44;4960486;28;20134;-86
2022/06/16 11:45:55;;;;;;;0.88;0.50;;;;;;;39.91;14.77;101440.97;4982121;28;20050;-86
2022/06/16 11:48:41;;;;;;;0.75;0.30;;;;;;;40.40;13.79;101425.78;4984441;28;20928;-86
2022/06/16 11:51:29;;;;;;;0.75;0.40;;;;;;;40.00;14.14;101431.59;4964359;28;20692;-86
2022/06/16 11:54:20;;;;;;;0.88;0.70;;;;;;;40.13;13.83;101439.19;4961289;28;20038;-85
2022/06/16 11:57:05;;;;;;;2.50;0.73;;;;;;;40.58;13.48;101443.75;4969340;28;20043;-85
2022/06/16 11:59:58;;;;;;;0.95;0.77;;;;;;;40.08;13.97;101433.44;4984191;28;20523;-87
2022/06/16 12:03:15;;;;;;;2.20;0.43;;;;;;;39.66;14.08;101432.16;4986614;28;20050;-86
2022/06/16 12:06:09;;;;;;;1.00;0.40;;;;;;;40.64;13.40;101432.84;5002657;28;20058;-86
2022/06/16 12:09:28;;;;;;;1.80;0.77;;;;;;;40.78;13.26;101433.00;4983771;28;20050;-87
2022/06/16 12:12:08;;;;;;;1.80;0.70;;;;;;;41.12;13.32;101428.69;4985151;28;20680;-88
2022/06/16 12:15:08;;;;;;;1.02;0.30;;;;;;;41.02;13.48;101423.53;4979691;28;20062;-90
2022/06/16 12:18:21;;;;;;;3.20;0.80;;;;;;;40.44;13.50;101424.34;4982643;28;20045;-86
2022/06/16 12:21:08;;;;;;;1.33;0.80;;;;;;;40.58;13.19;101422.66;4982805;28;20073;-88
2022/06/16 12:23:52;;;;;;;0.43;0.35;;;;;;;40.08;13.95;101421.59;4979182;28;20050;-89
2022/06/16 12:27:11;;;;;;;0.90;0.60;;;;;;;39.52;14.05;101433.84;4963203;28;20070;-87
2022/06/16 12:30:14;;;;;;;0.60;0.40;;;;;;;38.17;14.76;101427.69;4975328;28;20050;-86
2022/06/16 12:32:47;;;;;;;1.15;0.30;;;;;;;38.61;14.89;101439.13;4977369;28;20054;-85
2022/06/16 12:35:46;;;;;;;1.42;0.50;;;;;;;38.63;14.28;101437.03;4976781;28;20681;-85
2022/06/16 12:38:26;;;;;;;0.28;0.25;;;;;;;39.62;14.36;101439.03;4994703;28;20141;-85
2022/06/16 12:41:09;;;;;;;2.05;0.30;;;;;;;40.48;13.83;101438.53;4996501;28;20062;-86
2022/06/16 12:43:46;;;;;;;4.47;0.80;;;;;;;39.89;13.78;101436.72;4965573;28;20058;-87